Time;durP1;ratioP1;P1;durP2;ratioP2;P2;SDS_P1;SDS_P2;PMS_P1;PMS_P2;Temp;Humidity;BMP_temperature;BMP_pressure;BME280_temperature;BME280_humidity;BME280_pressure;Samples;Min_cycle;Max_cycle;Signal;HPM_P1;HPM_P2
2022/12/02 00:00:49;;;;;;;90.32;47.15;;;;;;;7.38;69.37;102507.69;5025596;28;20457;-61
2022/12/02 00:03:18;;;;;;;92.40;47.85;;;;;;;7.33;69.87;102501.91;5031875;28;20167;-61
2022/12/02 00:05:46;;;;;;;96.30;48.55;;;;;;;7.29;69.78;102495.91;5024339;28;20103;-61
2022/12/02 00:08:21;;;;;;;93.90;49.17;;;;;;;7.27;69.72;102511.81;5027989;28;20034;-60
2022/12/02 00:10:50;;;;;;;99.57;50.55;;;;;;;7.22;69.38;102507.91;5026979;28;20041;-61
2022/12/02 00:13:22;;;;;;;99.40;50.13;;;;;;;7.21;69.50;102498.75;5022486;28;21748;-62
2022/12/02 00:16:01;;;;;;;;;;;;;;;7.36;69.27;102496.84;5028125;28;20478;-61
2022/12/02 00:18:27;;;;;;;98.60;48.55;;;;;;;7.25;68.73;102505.63;5030716;28;19943;-61
2022/12/02 00:20:53;;;;;;;99.22;49.42;;;;;;;7.24;68.56;102492.00;5019199;28;20073;-62
2022/12/02 00:23:18;;;;;;;94.63;49.03;;;;;;;7.23;68.74;102495.78;5031801;28;20025;-61
2022/12/02 00:25:50;;;;;;;98.55;51.20;;;;;;;7.21;68.43;102493.25;5031384;28;20083;-61
2022/12/02 00:28:16;;;;;;;98.70;50.95;;;;;;;7.21;68.43;102498.75;5028445;28;20067;-61
2022/12/02 00:30:41;;;;;;;86.60;46.20;;;;;;;7.19;67.92;102488.94;5029070;28;20449;-61
2022/12/02 00:33:07;;;;;;;85.72;49.47;;;;;;;7.16;67.09;102490.19;5031778;28;20116;-61
2022/12/02 00:35:33;;;;;;;89.97;48.10;;;;;;;7.14;67.18;102482.09;5044728;28;20463;-61
2022/12/02 00:37:58;;;;;;;86.40;48.22;;;;;;;7.13;67.43;102480.38;5037074;28;20159;-61
2022/12/02 00:40:23;;;;;;;84.47;45.17;;;;;;;7.12;67.40;102472.28;5028945;28;20029;-61
2022/12/02 00:42:49;;;;;;;84.18;45.85;;;;;;;7.15;67.45;102477.41;5042266;28;20036;-61
2022/12/02 00:47:58;;;;;;;83.65;47.60;;;;;;;7.13;67.05;102474.84;5030748;28;20048;-61
2022/12/02 00:50:24;;;;;;;81.82;45.30;;;;;;;7.12;66.28;102478.69;5032015;28;20026;-61
2022/12/02 00:52:50;;;;;;;84.20;45.35;;;;;;;7.10;66.56;102474.38;5037426;28;20029;-61
2022/12/02 00:55:16;;;;;;;85.65;45.97;;;;;;;7.11;66.58;102473.31;5024305;28;20021;-61
2022/12/02 00:57:41;;;;;;;83.88;44.08;;;;;;;7.08;66.69;102470.97;5030397;28;20367;-61
2022/12/02 01:00:08;;;;;;;83.35;44.30;;;;;;;7.09;66.74;102468.00;5028651;28;20064;-61
2022/12/02 01:02:33;;;;;;;87.95;46.00;;;;;;;7.04;67.26;102470.50;5045682;28;20159;-61
2022/12/02 01:04:59;;;;;;;85.47;44.92;;;;;;;7.04;67.00;102462.22;5029158;28;20540;-62
2022/12/02 01:07:24;;;;;;;84.78;45.88;;;;;;;7.04;66.89;102462.22;5028036;28;20042;-62
2022/12/02 01:09:49;;;;;;;80.07;42.83;;;;;;;7.03;66.92;102468.75;5024762;28;20034;-61
2022/12/02 01:12:15;;;;;;;85.18;45.20;;;;;;;7.01;67.35;102467.25;5020301;28;20075;-62
2022/12/02 01:14:40;;;;;;;81.00;43.67;;;;;;;6.96;67.05;102464.22;5028956;28;20025;-61
2022/12/02 01:17:05;;;;;;;81.88;45.60;;;;;;;6.92;66.74;102471.13;5027110;28;20802;-62
2022/12/02 01:19:31;;;;;;;76.32;43.00;;;;;;;6.91;67.25;102469.41;5029308;28;20076;-61
2022/12/02 01:21:56;;;;;;;78.38;43.63;;;;;;;6.93;66.88;102459.06;5028841;28;20033;-61
2022/12/02 01:24:21;;;;;;;81.03;43.65;;;;;;;6.93;67.26;102459.91;5028254;28;20036;-61
2022/12/02 01:26:47;;;;;;;80.32;43.50;;;;;;;6.93;67.24;102462.69;5027679;28;20554;-61
2022/12/02 01:29:12;;;;;;;77.32;42.25;;;;;;;6.94;66.65;102458.84;5022027;28;20048;-61
2022/12/02 01:31:37;;;;;;;80.63;43.45;;;;;;;6.96;66.73;102467.81;5027555;28;20045;-62
2022/12/02 01:34:02;;;;;;;77.65;41.88;;;;;;;6.94;67.25;102452.47;5030416;28;20026;-62
2022/12/02 01:36:28;;;;;;;76.95;42.97;;;;;;;6.93;66.62;102459.91;5025627;28;20587;-61
2022/12/02 01:38:53;;;;;;;76.25;43.83;;;;;;;6.90;66.39;102460.28;5029502;28;20068;-61
2022/12/02 01:41:18;;;;;;;78.93;42.67;;;;;;;6.91;66.97;102464.75;5028507;28;20029;-61
2022/12/02 01:43:44;;;;;;;78.40;42.80;;;;;;;6.91;67.47;102463.91;5029756;28;20061;-61
2022/12/02 01:46:09;;;;;;;83.28;44.28;;;;;;;6.92;67.56;102466.50;5021110;28;20482;-61
2022/12/02 01:48:36;;;;;;;83.15;42.97;;;;;;;6.91;67.33;102470.28;5011650;28;20033;-61
2022/12/02 01:51:01;;;;;;;82.53;43.75;;;;;;;6.95;67.86;102468.84;5019925;28;20331;-61
2022/12/02 01:53:27;;;;;;;84.80;43.30;;;;;;;6.92;67.71;102462.84;5031182;28;20507;-61
2022/12/02 01:55:52;;;;;;;76.15;42.40;;;;;;;6.90;67.87;102465.81;5029868;28;20030;-61
2022/12/02 01:58:22;;;;;;;79.40;41.88;;;;;;;6.91;67.32;102461.13;5028110;28;20035;-61
2022/12/02 02:00:47;;;;;;;75.65;41.45;;;;;;;6.88;67.91;102454.97;5033584;28;20110;-60
2022/12/02 02:03:12;;;;;;;75.80;41.92;;;;;;;6.91;67.02;102462.00;5050956;28;20465;-61
2022/12/02 02:05:38;;;;;;;78.05;41.35;;;;;;;6.89;67.03;102456.66;5021594;28;20043;-61
2022/12/02 02:08:09;;;;;;;74.97;40.78;;;;;;;6.89;67.40;102461.34;5045920;28;20488;-62
2022/12/02 02:10:36;;;;;;;74.43;42.20;;;;;;;6.91;67.00;102462.00;5042133;28;20396;-61
2022/12/02 02:13:02;;;;;;;76.25;40.58;;;;;;;6.91;66.81;102453.72;5034030;28;20035;-60
2022/12/02 02:15:28;;;;;;;76.38;42.15;;;;;;;6.90;66.49;102457.53;5048110;28;20025;-61
2022/12/02 02:17:56;;;;;;;74.13;42.05;;;;;;;6.88;66.94;102454.97;5029010;28;20047;-61
2022/12/02 02:20:23;;;;;;;72.35;41.20;;;;;;;6.86;67.35;102459.81;5029836;28;20029;-61
2022/12/02 02:22:56;;;;;;;77.47;41.45;;;;;;;6.86;66.46;102461.72;5019868;28;20029;-61
2022/12/02 02:25:21;;;;;;;73.63;39.90;;;;;;;6.79;66.38;102458.84;5047932;28;20064;-61
2022/12/02 02:27:56;;;;;;;77.65;42.03;;;;;;;6.80;66.75;102456.97;5036482;28;20417;-60
2022/12/02 02:30:22;;;;;;;76.10;40.33;;;;;;;6.77;66.90;102451.81;5051466;28;20021;-61
2022/12/02 02:32:48;;;;;;;74.63;39.63;;;;;;;6.77;66.29;102446.28;5038243;28;20108;-61
2022/12/02 02:35:15;;;;;;;76.10;40.88;;;;;;;6.77;66.54;102444.38;5026744;28;20448;-62
2022/12/02 02:37:40;;;;;;;78.68;41.17;;;;;;;6.81;66.72;102447.63;5029635;28;20021;-61
2022/12/02 02:40:06;;;;;;;78.75;42.10;;;;;;;6.79;66.83;102444.19;5011685;28;20044;-61
2022/12/02 02:42:32;;;;;;;75.57;41.00;;;;;;;6.76;66.87;102448.19;5027740;28;20539;-61
2022/12/02 02:44:59;;;;;;;79.32;42.20;;;;;;;6.77;66.87;102440.78;5028990;28;20037;-60
2022/12/02 02:47:25;;;;;;;80.35;43.92;;;;;;;6.74;66.40;102443.91;5029895;28;20484;-60
2022/12/02 02:49:50;;;;;;;81.40;43.55;;;;;;;6.72;65.72;102434.94;5028140;28;20112;-61
2022/12/02 02:52:16;;;;;;;86.00;44.42;;;;;;;6.69;66.48;102436.19;5027588;28;20025;-61
2022/12/02 02:54:41;;;;;;;77.45;40.92;;;;;;;6.66;65.54;102431.06;5028256;28;20758;-61
2022/12/02 02:57:08;;;;;;;74.07;40.95;;;;;;;6.64;65.95;102435.88;5023475;28;20041;-61
2022/12/02 02:59:33;;;;;;;73.22;39.17;;;;;;;6.62;65.44;102429.72;5030687;28;20083;-61
2022/12/02 03:01:59;;;;;;;75.13;40.15;;;;;;;6.60;65.26;102429.03;5029929;28;20025;-61
2022/12/02 03:04:26;;;;;;;77.47;39.80;;;;;;;6.57;65.40;102430.28;5028151;28;20537;-61
2022/12/02 03:06:52;;;;;;;73.25;39.00;;;;;;;6.50;65.20;102433.97;5029763;28;20560;-62
2022/12/02 03:09:21;;;;;;;72.00;38.90;;;;;;;6.50;65.67;102414.69;5030153;28;20031;-61
2022/12/02 03:11:50;;;;;;;70.30;39.22;;;;;;;6.49;65.05;102411.06;5030235;28;20083;-62
2022/12/02 03:14:16;;;;;;;72.53;39.30;;;;;;;6.50;65.12;102417.44;5022176;28;20041;-61
2022/12/02 03:16:43;;;;;;;70.47;38.35;;;;;;;6.50;64.98;102415.53;5023089;28;20033;-61
2022/12/02 03:19:09;;;;;;;70.47;38.83;;;;;;;6.51;64.69;102403.44;5030139;28;20465;-61
2022/12/02 03:21:34;;;;;;;69.25;38.25;;;;;;;6.50;64.66;102406.41;5029245;28;20067;-62
2022/12/02 03:24:02;;;;;;;68.88;37.15;;;;;;;6.52;65.12;102410.66;5026296;28;20032;-61
2022/12/02 03:26:28;;;;;;;68.78;39.72;;;;;;;6.50;64.54;102407.25;5028843;28;20025;-61
2022/12/02 03:28:55;;;;;;;66.50;37.60;;;;;;;6.49;64.19;102410.22;5028039;28;20037;-61
2022/12/02 03:31:21;;;;;;;69.75;38.35;;;;;;;6.46;64.30;102418.84;5019419;28;20050;-61
2022/12/02 03:33:48;;;;;;;70.35;38.45;;;;;;;6.47;64.56;102421.41;5029878;28;20025;-61
2022/12/02 03:36:13;;;;;;;67.80;36.58;;;;;;;6.47;63.86;102417.81;5027631;28;20108;-61
2022/12/02 03:38:39;;;;;;;67.38;37.92;;;;;;;6.44;63.56;102426.44;5026906;28;20030;-61
2022/12/02 03:41:05;;;;;;;68.18;37.10;;;;;;;6.41;63.28;102424.09;5027090;28;20068;-61
2022/12/02 03:43:31;;;;;;;70.22;36.97;;;;;;;6.40;63.85;102414.94;5027076;28;20454;-61
2022/12/02 03:45:57;;;;;;;69.32;37.45;;;;;;;6.37;63.42;102407.06;5026165;28;20044;-61
2022/12/02 03:48:24;;;;;;;69.03;36.00;;;;;;;6.34;62.97;102399.16;5016038;28;20141;-61
2022/12/02 03:50:51;;;;;;;66.82;37.40;;;;;;;6.33;63.28;102398.28;5030402;28;20053;-61
2022/12/02 03:53:17;;;;;;;68.43;36.03;;;;;;;6.31;63.44;102400.38;5032920;28;20083;-61
2022/12/02 03:55:43;;;;;;;65.95;35.53;;;;;;;6.29;63.50;102409.91;5033549;28;20057;-61
2022/12/02 03:58:08;;;;;;;67.82;37.25;;;;;;;6.26;63.48;102393.72;5035902;28;20467;-61
2022/12/02 04:00:35;;;;;;;68.03;37.20;;;;;;;6.23;63.78;102394.09;5030257;28;20033;-61
2022/12/02 04:03:00;;;;;;;68.35;37.75;;;;;;;6.20;63.43;102383.41;5030373;28;20032;-61
2022/12/02 04:05:25;;;;;;;69.55;37.05;;;;;;;6.23;63.82;102388.56;5034535;28;20041;-61
2022/12/02 04:07:54;;;;;;;72.82;38.75;;;;;;;6.23;64.13;102383.06;5034713;28;20107;-60
2022/12/02 04:10:19;;;;;;;68.05;36.60;;;;;;;6.24;64.03;102388.38;5027917;28;20029;-61
2022/12/02 04:12:44;;;;;;;70.18;37.67;;;;;;;6.25;64.01;102390.09;5035919;28;20037;-60
2022/12/02 04:15:10;;;;;;;70.88;38.53;;;;;;;6.27;64.08;102398.19;5034590;28;20477;-60
2022/12/02 04:17:38;;;;;;;68.13;37.42;;;;;;;6.26;64.29;102382.69;5026971;28;20030;-61
2022/12/02 04:20:05;;;;;;;67.30;36.58;;;;;;;6.28;64.57;102386.94;5034788;28;20045;-61
2022/12/02 04:22:30;;;;;;;76.10;38.90;;;;;;;6.27;64.07;102378.88;5033737;28;20032;-61
2022/12/02 04:24:59;;;;;;;67.93;36.85;;;;;;;6.24;63.82;102376.47;5034660;28;20477;-61
2022/12/02 04:27:25;;;;;;;73.82;37.83;;;;;;;6.26;64.78;102380.78;5025515;28;20040;-60
2022/12/02 04:29:51;;;;;;;68.63;36.45;;;;;;;6.21;64.64;102368.56;5035978;28;20066;-60
2022/12/02 04:32:16;;;;;;;62.92;35.00;;;;;;;6.23;64.44;102372.88;5035919;28;20029;-61
2022/12/02 04:34:42;;;;;;;66.82;36.33;;;;;;;6.20;64.66;102373.25;5031503;28;20604;-61
2022/12/02 04:37:10;;;;;;;70.85;37.05;;;;;;;6.20;64.94;102372.38;5031219;28;20118;-61
2022/12/02 04:39:35;;;;;;;67.03;34.60;;;;;;;6.22;63.88;102370.31;5035965;28;20059;-61
2022/12/02 04:42:00;;;;;;;64.22;34.63;;;;;;;6.17;64.17;102378.28;5034138;28;20484;-61
2022/12/02 04:44:26;;;;;;;71.72;36.33;;;;;;;6.14;64.44;102377.63;5036027;28;20029;-61
2022/12/02 04:46:51;;;;;;;67.68;34.63;;;;;;;6.13;64.50;102377.78;5034630;28;20389;-61
2022/12/02 04:49:16;;;;;;;66.60;34.25;;;;;;;6.10;64.39;102381.78;5028567;28;20025;-61
2022/12/02 04:51:42;;;;;;;63.60;33.05;;;;;;;6.12;64.20;102365.06;5035217;28;20473;-61
2022/12/02 04:54:07;;;;;;;66.47;33.42;;;;;;;6.11;64.32;102358.69;5035717;28;20029;-61
2022/12/02 04:56:32;;;;;;;63.72;33.15;;;;;;;6.12;64.03;102363.16;5034360;28;20021;-61
2022/12/02 04:58:57;;;;;;;62.53;32.63;;;;;;;6.08;64.19;102364.56;5031411;28;20453;-62
2022/12/02 05:01:23;;;;;;;60.47;31.55;;;;;;;6.00;63.94;102356.38;5024613;28;20699;-61
2022/12/02 05:03:48;;;;;;;54.78;28.10;;;;;;;6.00;64.11;102356.38;5027236;28;20033;-61
2022/12/02 05:06:13;;;;;;;49.35;27.02;;;;;;;6.00;63.28;102361.03;5015149;28;20421;-61
2022/12/02 05:08:39;;;;;;;53.50;27.45;;;;;;;5.97;63.39;102355.88;5025822;28;20037;-61
2022/12/02 05:11:04;;;;;;;53.25;29.13;;;;;;;5.98;62.87;102354.88;5023291;28;20061;-61
2022/12/02 05:13:29;;;;;;;48.33;27.05;;;;;;;5.99;62.95;102356.56;5028507;28;20100;-61
2022/12/02 05:15:54;;;;;;;52.45;28.75;;;;;;;6.01;62.95;102351.72;5031196;28;20378;-61
2022/12/02 05:18:20;;;;;;;51.40;28.33;;;;;;;5.98;62.90;102347.44;5027666;28;20083;-61
2022/12/02 05:20:45;;;;;;;57.08;31.30;;;;;;;5.99;63.29;102343.66;5028807;28;20481;-61
2022/12/02 05:23:12;;;;;;;53.65;29.73;;;;;;;5.96;63.08;102337.66;5020393;28;20038;-61
2022/12/02 05:25:37;;;;;;;54.53;30.00;;;;;;;5.93;63.63;102344.38;5032824;28;20038;-61
2022/12/02 05:28:03;;;;;;;54.90;28.67;;;;;;;5.90;63.64;102342.84;5029715;28;20151;-61
2022/12/02 05:30:28;;;;;;;55.83;30.17;;;;;;;5.89;63.50;102343.00;5027089;28;20033;-61
2022/12/02 05:32:53;;;;;;;55.45;29.20;;;;;;;5.89;63.61;102348.50;5026191;28;20375;-61
2022/12/02 05:35:18;;;;;;;50.65;28.42;;;;;;;5.89;63.57;102348.50;5028125;28;20034;-61
2022/12/02 05:37:44;;;;;;;56.53;29.15;;;;;;;5.86;64.21;102351.66;5021923;28;20037;-61
2022/12/02 05:40:09;;;;;;;57.55;29.85;;;;;;;5.87;63.61;102350.63;5026526;28;20029;-61
2022/12/02 05:42:35;;;;;;;53.22;29.23;;;;;;;5.87;63.49;102334.94;5026758;28;20476;-61
2022/12/02 05:45:12;;;;;;;57.58;29.73;;;;;;;5.86;63.89;102332.38;5026934;28;20068;-61
2022/12/02 05:47:37;;;;;;;54.47;28.35;;;;;;;5.84;63.47;102339.97;5030548;28;20400;-61
2022/12/02 05:50:09;;;;;;;51.25;27.70;;;;;;;5.83;63.85;102330.84;5028837;28;20029;-61
2022/12/02 05:52:35;;;;;;;53.53;27.88;;;;;;;5.86;63.59;102341.50;5028317;28;20029;-61
2022/12/02 05:55:10;;;;;;;50.95;27.83;;;;;;;5.87;63.86;102343.19;5019158;28;20037;-61
2022/12/02 05:57:35;;;;;;;49.15;26.10;;;;;;;5.86;63.34;102337.88;5022958;28;20496;-61
2022/12/02 06:00:13;;;;;;;51.00;27.23;;;;;;;5.80;63.53;102338.63;5029683;28;20029;-61
2022/12/02 06:02:51;;;;;;;49.63;25.33;;;;;;;5.69;63.53;102328.88;5018628;28;20393;-61
2022/12/02 06:05:23;;;;;;;50.92;25.88;;;;;;;5.65;63.73;102339.41;5023528;28;20037;-61
2022/12/02 06:07:52;;;;;;;47.88;25.92;;;;;;;5.56;63.59;102337.78;5027945;28;20084;-61
2022/12/02 06:10:20;;;;;;;49.00;25.27;;;;;;;5.54;64.14;102348.13;5022285;28;20033;-61
2022/12/02 06:12:46;;;;;;;45.83;24.05;;;;;;;5.50;63.96;102340.38;5031198;28;20061;-61
2022/12/02 06:15:14;;;;;;;48.22;25.13;;;;;;;5.54;63.98;102338.97;5028082;28;20064;-61
2022/12/02 06:17:40;;;;;;;50.78;25.52;;;;;;;5.56;64.34;102340.53;5027877;28;20044;-61
2022/12/02 06:20:06;;;;;;;47.42;24.10;;;;;;;5.53;63.90;102343.63;5031141;28;20033;-61
2022/12/02 06:22:33;;;;;;;49.78;25.13;;;;;;;5.55;64.47;102344.31;5030226;28;20037;-61
2022/12/02 06:25:17;;;;;;;47.47;25.10;;;;;;;5.55;64.52;102343.47;5027587;28;20516;-61
2022/12/02 06:27:42;;;;;;;48.53;24.63;;;;;;;5.62;64.28;102338.94;5013576;28;20112;-61
2022/12/02 06:30:13;;;;;;;49.15;25.45;;;;;;;5.61;64.13;102338.06;5023968;28;20021;-61
2022/12/02 06:32:41;;;;;;;48.78;26.25;;;;;;;5.64;64.78;102336.84;5029241;28;20049;-61
2022/12/02 06:35:21;;;;;;;49.30;24.75;;;;;;;5.68;64.81;102334.59;5026079;28;20073;-62
2022/12/02 06:37:47;;;;;;;48.95;24.35;;;;;;;5.59;63.46;102342.06;5032869;28;20036;-61
2022/12/02 06:40:22;;;;;;;47.72;24.17;;;;;;;5.53;64.20;102342.78;5027047;28;20100;-61
2022/12/02 06:42:47;;;;;;;43.75;23.50;;;;;;;5.53;63.85;102342.78;5028714;28;20587;-62
2022/12/02 06:45:13;;;;;;;47.90;25.20;;;;;;;5.47;63.65;102332.53;5013387;28;20041;-61
2022/12/02 06:47:41;;;;;;;48.85;24.95;;;;;;;5.46;64.66;102342.66;5027806;28;20111;-61
2022/12/02 06:50:06;;;;;;;46.63;25.67;;;;;;;5.47;64.66;102340.78;5028876;28;20175;-62
2022/12/02 06:52:34;;;;;;;47.20;25.25;;;;;;;5.46;64.80;102342.66;5030125;28;20119;-62
2022/12/02 06:54:59;;;;;;;46.90;25.25;;;;;;;5.40;65.23;102338.75;5026866;28;20036;-61
2022/12/02 06:57:30;;;;;;;46.88;25.00;;;;;;;5.43;65.29;102339.44;5027327;28;20096;-61
2022/12/02 06:59:56;;;;;;;52.45;25.65;;;;;;;5.47;64.78;102338.88;5027872;28;20041;-61
2022/12/02 07:02:29;;;;;;;48.60;24.50;;;;;;;5.47;64.89;102338.88;5018534;28;20030;-61
2022/12/02 07:04:56;;;;;;;47.45;24.48;;;;;;;5.51;64.74;102339.38;5026922;28;20089;-61
2022/12/02 07:07:32;;;;;;;49.80;24.67;;;;;;;5.54;65.59;102344.50;5020139;28;20488;-61
2022/12/02 07:10:02;;;;;;;49.58;25.17;;;;;;;5.53;65.34;102342.78;5024175;28;20049;-60
2022/12/02 07:12:36;;;;;;;43.80;24.70;;;;;;;5.54;65.32;102348.13;5048927;28;20033;-61
2022/12/02 07:15:19;;;;;;;48.10;24.83;;;;;;;5.53;64.61;102346.38;5026952;28;20120;-60
2022/12/02 07:17:44;;;;;;;;;;;;;;;5.65;65.44;102346.81;5047453;28;20442;-60
2022/12/02 07:20:12;;;;;;;41.28;23.15;;;;;;;5.52;65.12;102341.94;5031414;28;19921;-60
2022/12/02 07:22:46;;;;;;;47.50;24.08;;;;;;;5.52;65.35;102343.84;5024542;28;20392;-60
2022/12/02 07:25:14;;;;;;;46.60;23.45;;;;;;;5.52;64.90;102352.94;5034257;28;20824;-60
2022/12/02 07:27:41;;;;;;;51.45;25.73;;;;;;;5.49;64.99;102347.78;5017035;28;20557;-60
2022/12/02 07:30:22;;;;;;;49.22;24.92;;;;;;;5.47;65.84;102357.31;5019838;28;20424;-60
2022/12/02 07:32:48;;;;;;;44.95;23.13;;;;;;;5.41;65.29;102350.59;5018346;28;20041;-59
2022/12/02 07:35:13;;;;;;;41.45;22.02;;;;;;;5.37;65.56;102341.84;5028063;28;20045;-60
2022/12/02 07:37:38;;;;;;;44.20;23.02;;;;;;;5.45;65.18;102343.69;5022186;28;20029;-60
2022/12/02 07:40:05;;;;;;;44.92;22.90;;;;;;;5.47;65.84;102343.53;5021413;28;20037;-60
2022/12/02 07:42:30;;;;;;;40.50;21.40;;;;;;;5.49;65.63;102335.94;5024695;28;20041;-59
2022/12/02 07:44:55;;;;;;;44.45;22.02;;;;;;;5.49;65.36;102347.78;5023230;28;20048;-59
2022/12/02 07:47:20;;;;;;;42.58;21.67;;;;;;;5.50;65.45;102338.53;5026823;28;20083;-59
2022/12/02 07:49:46;;;;;;;41.50;22.08;;;;;;;5.52;65.38;102335.56;5020865;28;20104;-59
2022/12/02 07:52:11;;;;;;;42.90;21.35;;;;;;;5.55;65.24;102336.06;5027129;28;20397;-59
2022/12/02 07:54:36;;;;;;;41.47;22.40;;;;;;;5.56;65.29;102339.66;5023255;28;20087;-58
2022/12/02 07:57:01;;;;;;;38.95;20.92;;;;;;;5.58;65.17;102337.56;5028705;28;20040;-59
2022/12/02 07:59:27;;;;;;;41.72;22.30;;;;;;;5.58;65.03;102340.31;5019001;28;20029;-59
2022/12/02 08:01:52;;;;;;;36.67;20.27;;;;;;;5.54;65.00;102336.22;5024590;28;20098;-60
2022/12/02 08:04:17;;;;;;;38.42;20.58;;;;;;;5.58;65.18;102341.22;5025757;28;20037;-59
2022/12/02 08:06:42;;;;;;;43.42;22.98;;;;;;;5.55;64.39;102352.59;5025738;28;20572;-59
2022/12/02 08:09:09;;;;;;;39.83;21.45;;;;;;;5.50;64.71;102355.03;5028105;28;20025;-60
2022/12/02 08:11:34;;;;;;;40.70;21.23;;;;;;;5.48;64.79;102357.09;5027351;28;20033;-59
2022/12/02 08:13:59;;;;;;;45.60;23.40;;;;;;;5.51;64.83;102345.72;5023311;28;20121;-59
2022/12/02 08:16:25;;;;;;;43.83;21.80;;;;;;;5.54;64.93;102350.00;5026518;28;20183;-60
2022/12/02 08:18:50;;;;;;;42.45;22.08;;;;;;;5.54;65.18;102347.25;5026307;28;20079;-59
2022/12/02 08:21:15;;;;;;;42.97;23.08;;;;;;;5.52;65.52;102347.44;5026565;28;20124;-59
2022/12/02 08:23:41;;;;;;;42.35;23.23;;;;;;;5.53;65.46;102340.03;5023417;28;20033;-59
2022/12/02 08:26:06;;;;;;;47.55;23.80;;;;;;;5.52;65.68;102341.94;5025689;28;20041;-59
2022/12/02 08:28:31;;;;;;;44.60;22.67;;;;;;;5.54;65.85;102350.00;5026268;28;20017;-59
2022/12/02 08:30:56;;;;;;;42.22;22.75;;;;;;;5.57;65.78;102350.50;5027804;28;20033;-59
2022/12/02 08:33:22;;;;;;;42.05;22.67;;;;;;;5.56;65.88;102345.19;5018756;28;20048;-59
2022/12/02 08:35:47;;;;;;;40.85;22.35;;;;;;;5.55;66.17;102335.22;5042697;28;20388;-59
2022/12/02 08:38:12;;;;;;;40.58;22.70;;;;;;;5.52;66.27;102339.19;5031131;28;20033;-60
2022/12/02 08:40:37;;;;;;;42.28;22.10;;;;;;;5.56;66.23;102337.78;5027961;28;20759;-60
2022/12/02 08:43:03;;;;;;;39.92;23.33;;;;;;;5.56;66.20;102337.78;5037081;28;20033;-61
2022/12/02 08:45:28;;;;;;;45.40;24.00;;;;;;;5.56;66.86;102342.41;5025859;28;20037;-60
2022/12/02 08:47:54;;;;;;;45.20;23.20;;;;;;;5.53;66.69;102348.28;5039734;28;20029;-61
2022/12/02 08:50:19;;;;;;;45.65;24.33;;;;;;;5.53;66.18;102345.53;5035233;28;20035;-60
2022/12/02 08:52:45;;;;;;;49.38;25.35;;;;;;;5.48;66.57;102348.84;5031028;28;20065;-60
2022/12/02 08:55:10;;;;;;;45.90;25.00;;;;;;;5.43;67.08;102348.53;5030826;28;20108;-60
2022/12/02 08:57:35;;;;;;;49.88;24.95;;;;;;;5.42;66.81;102346.81;5026170;28;20087;-60
2022/12/02 09:00:02;;;;;;;49.17;26.05;;;;;;;5.43;67.25;102351.31;5027809;28;20116;-60
2022/12/02 09:02:28;;;;;;;50.15;25.98;;;;;;;5.37;67.25;102339.09;5026500;28;20033;-59
2022/12/02 09:04:53;;;;;;;45.25;24.40;;;;;;;5.34;67.41;102339.47;5029387;28;20025;-59
2022/12/02 09:07:18;;;;;;;42.70;23.70;;;;;;;5.36;67.67;102333.78;5028167;28;20029;-60
2022/12/02 09:09:45;;;;;;;40.72;22.75;;;;;;;5.38;67.67;102340.84;5030161;28;20159;-57
2022/12/02 09:12:10;;;;;;;45.45;22.85;;;;;;;5.40;67.51;102341.50;5030878;28;20021;-59
2022/12/02 09:14:35;;;;;;;41.15;22.25;;;;;;;5.41;67.63;102339.59;5031038;28;20029;-59
2022/12/02 09:17:01;;;;;;;39.08;21.30;;;;;;;5.42;67.79;102346.81;5031152;28;20094;-59
2022/12/02 09:19:26;;;;;;;38.05;20.67;;;;;;;5.46;67.90;102339.03;5031060;28;20041;-60
2022/12/02 09:21:51;;;;;;;38.20;20.60;;;;;;;5.43;68.19;102345.78;5022489;28;20049;-60
2022/12/02 09:24:16;;;;;;;36.88;20.60;;;;;;;5.48;67.90;102336.97;5032817;28;20506;-70
2022/12/02 09:26:42;;;;;;;33.05;18.42;;;;;;;5.48;68.17;102340.59;5040281;28;20030;-60
2022/12/02 09:29:07;;;;;;;35.65;19.38;;;;;;;5.46;67.96;102339.91;5041123;28;20029;-60
2022/12/02 09:31:32;;;;;;;31.02;18.65;;;;;;;5.48;68.95;102336.97;5043241;28;20025;-61
2022/12/02 09:33:58;;;;;;;32.83;18.25;;;;;;;5.46;68.63;102341.78;5044252;28;20036;-60
2022/12/02 09:36:23;;;;;;;29.83;17.08;;;;;;;5.46;68.12;102342.66;5035415;28;20049;-61
2022/12/02 09:38:52;;;;;;;30.60;16.90;;;;;;;5.43;68.80;102337.53;5028561;28;20053;-60
2022/12/02 09:41:18;;;;;;;28.80;17.35;;;;;;;5.44;69.04;102338.38;5028394;28;20393;-61
2022/12/02 09:43:43;;;;;;;32.80;17.52;;;;;;;5.40;68.89;102326.88;5029723;28;20477;-60
2022/12/02 09:46:08;;;;;;;32.63;18.27;;;;;;;5.38;69.35;102323.44;5042081;28;20033;-60
2022/12/02 09:48:34;;;;;;;33.70;18.05;;;;;;;5.36;69.55;102325.53;5048816;28;20025;-59
2022/12/02 09:51:03;;;;;;;31.83;17.73;;;;;;;5.35;69.22;102321.94;5037912;28;20108;-60
2022/12/02 09:53:32;;;;;;;30.85;18.48;;;;;;;5.31;69.96;102319.72;5030200;28;20742;-60
2022/12/02 09:55:58;;;;;;;30.90;17.70;;;;;;;5.33;69.70;102315.72;5046364;28;20029;-59
2022/12/02 09:58:25;;;;;;;32.22;18.38;;;;;;;5.36;70.35;102325.53;5025172;28;20021;-60
2022/12/02 10:00:51;;;;;;;33.35;18.05;;;;;;;5.38;69.80;102329.81;5036714;28;20063;-62
2022/12/02 10:03:21;;;;;;;36.80;19.27;;;;;;;5.37;70.06;102313.47;5045877;28;20055;-60
2022/12/02 10:05:46;;;;;;;31.90;17.85;;;;;;;5.42;69.69;102324.78;5039570;28;20037;-60
2022/12/02 10:08:20;;;;;;;33.05;18.52;;;;;;;5.38;70.24;102324.31;5032472;28;20041;-60
2022/12/02 10:10:49;;;;;;;32.45;18.67;;;;;;;5.40;69.67;102310.34;5031044;28;20056;-60
2022/12/02 10:13:17;;;;;;;32.63;17.63;;;;;;;5.40;69.83;102318.63;5032326;28;20108;-60
2022/12/02 10:15:43;;;;;;;28.67;16.45;;;;;;;5.80;77.70;102316.56;5025437;28;20120;-59
2022/12/02 10:18:18;;;;;;;33.75;18.60;;;;;;;5.60;71.03;102316.22;5015709;28;20116;-61
2022/12/02 10:20:43;;;;;;;30.30;16.63;;;;;;;6.04;80.56;102310.00;5038975;28;20029;-60
2022/12/02 10:23:09;;;;;;;31.83;18.63;;;;;;;6.26;74.18;102317.34;5041689;28;20040;-60
2022/12/02 10:25:35;;;;;;;33.60;17.92;;;;;;;6.31;70.24;102320.41;5031714;28;20118;-59
2022/12/02 10:28:01;;;;;;;37.63;19.80;;;;;;;6.15;68.93;102310.41;5048306;28;20049;-60
2022/12/02 10:30:27;;;;;;;34.38;18.58;;;;;;;6.02;69.00;102321.22;5022123;28;20196;-61
2022/12/02 10:33:02;;;;;;;39.05;20.13;;;;;;;5.90;69.70;102314.44;5028586;28;20493;-60
2022/12/02 10:35:41;;;;;;;38.47;19.80;;;;;;;5.83;69.51;102314.31;5027926;28;20064;-60
2022/12/02 10:38:28;;;;;;;41.10;20.35;;;;;;;5.74;69.18;102301.66;5034087;28;20488;-60
2022/12/02 10:41:21;;;;;;;43.85;21.60;;;;;;;5.72;69.62;102294.59;5029425;28;20099;-59
2022/12/02 10:43:52;;;;;;;;;;;;;;;5.79;69.37;102299.19;5016645;28;20399;-59
2022/12/02 10:46:27;;;;;;;51.13;23.15;;;;;;;5.60;69.75;102300.56;5029697;28;19920;-60
2022/12/02 10:48:54;;;;;;;51.22;23.05;;;;;;;5.54;69.52;102303.19;5015854;28;20028;-59
2022/12/02 10:51:20;;;;;;;37.97;18.30;;;;;;;5.72;74.80;102291.84;5024597;28;20034;-60
2022/12/02 10:53:56;;;;;;;54.78;24.35;;;;;;;5.57;70.12;102298.16;5013257;28;20045;-60
2022/12/02 10:56:24;;;;;;;51.85;25.17;;;;;;;5.53;69.35;102295.97;5027439;28;20544;-60
2022/12/02 10:58:55;;;;;;;59.22;25.45;;;;;;;5.49;69.28;102295.47;5025067;28;20121;-60
2022/12/02 11:01:20;;;;;;;54.25;25.58;;;;;;;5.44;69.96;102289.66;5044713;28;20083;-60
2022/12/02 11:03:46;;;;;;;51.83;23.58;;;;;;;5.41;69.96;102285.38;5047853;28;20454;-64
2022/12/02 11:06:17;;;;;;;55.17;24.77;;;;;;;5.43;69.77;102290.72;5031124;28;20025;-60
2022/12/02 11:08:44;;;;;;;56.05;25.25;;;;;;;5.45;69.88;102294.13;5031974;28;20469;-61
2022/12/02 11:11:24;;;;;;;50.45;23.70;;;;;;;5.44;69.65;102283.31;5036953;28;20111;-62
2022/12/02 11:14:02;;;;;;;58.30;25.90;;;;;;;5.42;69.56;102283.47;5047404;28;20557;-61
2022/12/02 11:16:27;;;;;;;57.83;25.48;;;;;;;5.43;69.86;102282.47;5042279;28;20025;-61
2022/12/02 11:19:09;;;;;;;59.28;25.45;;;;;;;5.43;69.59;102276.09;5046071;28;20025;-61